createdAt,value
2019-01-20T00:01:13.273Z,25.93
2019-01-20T00:03:57.473Z,25.53
2019-01-20T00:06:42.420Z,26.57
2019-01-20T00:09:25.799Z,23.17
2019-01-20T00:12:08.949Z,25.10
2019-01-20T00:14:52.145Z,31.48
2019-01-20T00:17:37.708Z,27.80
2019-01-20T00:20:22.758Z,25.67
2019-01-20T00:23:07.789Z,25.17
2019-01-20T00:25:51.172Z,26.53
2019-01-20T00:28:34.056Z,25.63
2019-01-20T00:31:17.255Z,26.73
2019-01-20T00:34:00.276Z,25.43
2019-01-20T00:36:42.937Z,26.30
2019-01-20T00:39:28.204Z,26.23
2019-01-20T00:42:12.644Z,25.00
2019-01-20T00:45:02.924Z,24.33
2019-01-20T00:47:44.977Z,25.73
2019-01-20T00:50:31.657Z,25.43
2019-01-20T00:53:15.097Z,28.45
2019-01-20T00:56:00.497Z,24.77
2019-01-20T00:58:44.050Z,25.37
2019-01-20T01:01:30.681Z,26.03
2019-01-20T01:04:14.021Z,24.07
2019-01-20T01:06:56.563Z,25.37
2019-01-20T01:09:40.029Z,21.97
2019-01-20T01:12:24.184Z,23.83
2019-01-20T01:15:06.929Z,24.90
2019-01-20T01:17:49.668Z,25.50
2019-01-20T01:20:33.084Z,25.27
2019-01-20T01:23:15.939Z,25.47
2019-01-20T01:25:59.184Z,24.67
2019-01-20T01:28:41.979Z,25.50
2019-01-20T01:31:25.577Z,25.13
2019-01-20T01:34:08.117Z,26.23
2019-01-20T01:36:54.940Z,23.87
2019-01-20T01:39:40.466Z,24.83
2019-01-20T01:42:23.550Z,23.50
2019-01-20T01:45:06.187Z,26.17
2019-01-20T01:47:50.790Z,24.43
2019-01-20T01:50:33.683Z,33.60
2019-01-20T01:53:16.605Z,24.17
2019-01-20T01:55:59.671Z,23.37
2019-01-20T01:58:42.913Z,23.27
2019-01-20T02:01:25.965Z,21.57
2019-01-20T02:04:08.952Z,20.20
2019-01-20T02:06:51.872Z,28.17
2019-01-20T02:09:34.700Z,22.97
2019-01-20T02:12:17.436Z,23.23
2019-01-20T02:15:02.939Z,21.80
2019-01-20T02:17:45.715Z,22.23
2019-01-20T02:20:29.557Z,19.57
2019-01-20T02:23:15.029Z,21.40
2019-01-20T02:25:58.258Z,21.83
2019-01-20T02:28:41.603Z,18.80
2019-01-20T02:31:25.327Z,21.57
2019-01-20T02:34:08.865Z,22.97
2019-01-20T02:36:52.340Z,23.43
2019-01-20T02:39:35.234Z,21.10
2019-01-20T02:42:18.727Z,22.83
2019-01-20T02:45:01.215Z,21.40
2019-01-20T02:47:44.012Z,22.00
2019-01-20T02:50:26.774Z,21.57
2019-01-20T02:53:10.812Z,20.93
2019-01-20T02:55:54.335Z,20.80
2019-01-20T02:58:37.617Z,19.97
2019-01-20T03:01:20.586Z,20.20
2019-01-20T03:04:05.005Z,27.20
2019-01-20T03:06:47.710Z,22.93
2019-01-20T03:09:30.329Z,19.83
2019-01-20T03:12:14.420Z,21.50
2019-01-20T03:14:57.233Z,20.93
2019-01-20T03:17:40.872Z,19.03
2019-01-20T03:20:24.496Z,17.07
2019-01-20T03:23:08.436Z,20.00
2019-01-20T03:25:53.357Z,17.70
2019-01-20T03:28:38.867Z,19.60
2019-01-20T03:31:23.477Z,17.23
2019-01-20T03:34:07.245Z,18.73
2019-01-20T03:36:50.413Z,18.53
2019-01-20T03:39:33.758Z,18.97
2019-01-20T03:42:18.883Z,19.40
2019-01-20T03:45:01.819Z,19.13
2019-01-20T03:47:46.745Z,17.93
2019-01-20T03:50:34.413Z,17.93
2019-01-20T03:53:17.347Z,17.37
2019-01-20T03:56:00.118Z,16.97
2019-01-20T03:58:45.425Z,21.62
2019-01-20T04:01:28.585Z,17.87
2019-01-20T04:04:11.752Z,17.73
2019-01-20T04:06:57.293Z,17.70
2019-01-20T04:09:41.825Z,18.30
2019-01-20T04:12:24.781Z,16.37
2019-01-20T04:15:07.718Z,15.87
2019-01-20T04:17:50.578Z,17.60
2019-01-20T04:20:37.529Z,16.57
2019-01-20T04:23:22.404Z,16.77
2019-01-20T04:26:07.333Z,15.50
2019-01-20T04:28:52.740Z,15.33
2019-01-20T04:31:35.393Z,16.20
2019-01-20T04:34:19.254Z,16.03
2019-01-20T04:37:02.389Z,16.67
2019-01-20T04:39:45.516Z,17.17
2019-01-20T04:42:30.427Z,16.53
2019-01-20T04:45:12.941Z,15.90
2019-01-20T04:47:56.608Z,15.50
2019-01-20T04:50:39.467Z,16.47
2019-01-20T04:53:22.570Z,16.23
2019-01-20T04:56:05.846Z,18.77
2019-01-20T04:58:48.857Z,17.83
2019-01-20T05:01:31.572Z,16.73
2019-01-20T05:04:14.149Z,18.37
2019-01-20T05:06:59.664Z,16.07
2019-01-20T05:09:43.097Z,17.00
2019-01-20T05:12:25.986Z,16.07
2019-01-20T05:15:08.984Z,17.63
2019-01-20T05:17:52.270Z,17.30
2019-01-20T05:20:35.050Z,16.70
2019-01-20T05:23:18.248Z,17.37
2019-01-20T05:26:01.546Z,17.07
2019-01-20T05:28:45.454Z,17.13
2019-01-20T05:31:28.578Z,18.00
2019-01-20T05:34:12.277Z,16.30
2019-01-20T05:36:55.006Z,25.82
2019-01-20T05:39:38.915Z,19.17
2019-01-20T05:42:23.968Z,18.27
2019-01-20T05:45:07.863Z,17.67
2019-01-20T05:47:51.362Z,18.13
2019-01-20T05:50:22.981Z,18.70
2019-01-20T05:56:16.179Z,17.03
2019-01-20T05:59:01.569Z,16.80
2019-01-20T06:01:45.648Z,18.77
2019-01-20T06:04:29.409Z,18.30
2019-01-20T06:07:12.586Z,18.23
2019-01-20T06:09:57.961Z,17.17
2019-01-20T06:12:40.977Z,19.23
2019-01-20T06:15:23.711Z,18.13
2019-01-20T06:18:07.482Z,19.77
2019-01-20T06:20:51.021Z,18.57
2019-01-20T06:23:35.089Z,15.90
2019-01-20T06:26:19.686Z,17.27
2019-01-20T06:29:02.657Z,17.73
2019-01-20T06:31:45.482Z,16.37
2019-01-20T06:34:28.241Z,16.30
2019-01-20T06:37:11.144Z,15.77
2019-01-20T06:39:56.423Z,14.97
2019-01-20T06:42:39.080Z,14.00
2019-01-20T06:45:22.943Z,13.67
2019-01-20T06:48:05.933Z,13.17
2019-01-20T06:50:48.593Z,18.33
2019-01-20T06:53:31.558Z,16.50
2019-01-20T06:56:15.026Z,14.77
2019-01-20T06:58:58.549Z,14.17
2019-01-20T07:01:41.961Z,14.80
2019-01-20T07:04:25.032Z,14.80
2019-01-20T07:07:07.794Z,16.03
2019-01-20T07:09:52.776Z,15.23
2019-01-20T07:12:36.173Z,17.03
2019-01-20T07:15:19.079Z,14.13
2019-01-20T07:18:03.108Z,14.53
2019-01-20T07:20:45.877Z,15.20
2019-01-20T07:23:30.043Z,16.27
2019-01-20T07:26:13.048Z,14.67
2019-01-20T07:28:56.932Z,18.05
2019-01-20T07:31:42.176Z,16.67
2019-01-20T07:34:27.457Z,16.13
2019-01-20T07:37:10.489Z,14.97
2019-01-20T07:39:54.544Z,13.80
2019-01-20T07:42:39.735Z,14.63
2019-01-20T07:45:23.256Z,16.32
2019-01-20T07:48:06.242Z,15.73
2019-01-20T07:50:49.158Z,14.93
2019-01-20T07:53:32.417Z,14.97
2019-01-20T07:56:15.052Z,15.83
2019-01-20T07:58:58.328Z,13.03
2019-01-20T08:01:41.350Z,13.50
2019-01-20T08:04:24.370Z,15.10
2019-01-20T08:07:07.365Z,16.00
2019-01-20T08:09:51.852Z,18.77
2019-01-20T08:12:36.846Z,16.20
2019-01-20T08:15:19.587Z,14.93
2019-01-20T08:18:02.190Z,13.20
2019-01-20T08:20:47.236Z,14.63
2019-01-20T08:23:30.072Z,12.60
2019-01-20T08:26:13.509Z,16.80
2019-01-20T08:28:57.367Z,20.53
2019-01-20T08:31:40.141Z,17.10
2019-01-20T08:34:22.734Z,17.60
2019-01-20T08:37:08.784Z,15.83
2019-01-20T08:39:55.380Z,17.03
2019-01-20T08:42:40.118Z,17.98
2019-01-20T08:45:23.111Z,15.70
2019-01-20T08:48:06.082Z,14.00
2019-01-20T08:50:50.516Z,13.93
2019-01-20T08:53:33.937Z,12.77
2019-01-20T08:56:16.635Z,11.20
2019-01-20T08:58:59.963Z,13.83
2019-01-20T09:01:43.413Z,15.87
2019-01-20T09:04:28.044Z,16.47
2019-01-20T09:07:11.768Z,16.10
2019-01-20T09:09:55.110Z,16.97
2019-01-20T09:12:39.408Z,17.53
2019-01-20T09:15:22.178Z,16.00
2019-01-20T09:18:04.785Z,17.33
2019-01-20T09:20:49.837Z,17.17
2019-01-20T09:23:35.497Z,21.42
2019-01-20T09:26:19.893Z,17.57
2019-01-20T09:29:04.458Z,17.03
2019-01-20T09:31:47.833Z,16.60
2019-01-20T09:34:30.441Z,18.50
2019-01-20T09:37:15.323Z,14.93
2019-01-20T09:40:00.819Z,16.02
2019-01-20T09:42:45.246Z,15.47
2019-01-20T09:45:29.839Z,17.27
2019-01-20T09:48:14.588Z,16.47
2019-01-20T09:50:57.243Z,15.20
2019-01-20T09:53:40.429Z,15.80
2019-01-20T09:56:23.239Z,17.33
2019-01-20T09:59:05.926Z,18.47
2019-01-20T10:01:50.438Z,15.20
2019-01-20T10:04:33.624Z,14.97
2019-01-20T10:07:16.728Z,16.80
2019-01-20T10:10:00.011Z,16.20
2019-01-20T10:12:42.964Z,16.23
2019-01-20T10:15:26.233Z,15.83
2019-01-20T10:18:09.150Z,16.27
2019-01-20T10:20:51.858Z,19.73
2019-01-20T10:23:35.162Z,18.13
2019-01-20T10:26:18.523Z,14.90
2019-01-20T10:29:01.973Z,15.77
2019-01-20T10:34:30.890Z,14.10
2019-01-20T10:37:15.832Z,15.40
2019-01-20T10:39:59.018Z,19.48
2019-01-20T10:42:43.039Z,16.03
2019-01-20T10:45:25.736Z,17.10
2019-01-20T10:48:10.625Z,16.53
2019-01-20T10:50:53.796Z,15.53
2019-01-20T10:53:38.969Z,15.23
2019-01-20T10:56:22.301Z,19.30
2019-01-20T10:59:07.341Z,14.60
2019-01-20T11:01:49.864Z,12.70
2019-01-20T11:04:32.843Z,12.77
2019-01-20T11:07:17.172Z,12.63
2019-01-20T11:10:01.769Z,16.30
2019-01-20T11:12:44.531Z,15.00
2019-01-20T11:15:27.635Z,13.83
2019-01-20T11:18:10.831Z,21.23
2019-01-20T11:20:54.281Z,20.67
2019-01-20T11:23:37.168Z,16.03
2019-01-20T11:26:21.972Z,15.97
2019-01-20T11:29:05.138Z,15.47
2019-01-20T11:31:48.111Z,14.77
2019-01-20T11:34:33.673Z,18.23
2019-01-20T11:37:18.246Z,19.13
2019-01-20T11:40:01.522Z,18.43
2019-01-20T11:42:46.629Z,16.50
2019-01-20T11:45:31.350Z,18.97
2019-01-20T11:48:16.283Z,17.37
2019-01-20T11:50:59.407Z,17.13
2019-01-20T11:53:42.178Z,17.40
2019-01-20T11:56:25.662Z,18.97
2019-01-20T11:59:10.726Z,21.85
2019-01-20T12:01:55.698Z,20.67
2019-01-20T12:04:40.896Z,20.67
2019-01-20T12:07:12.498Z,18.17
2019-01-20T12:09:55.561Z,18.77
2019-01-20T12:12:38.870Z,17.70
2019-01-20T12:15:23.769Z,18.23
2019-01-20T12:18:06.494Z,18.83
2019-01-20T12:20:49.313Z,18.20
2019-01-20T12:23:33.581Z,19.13
2019-01-20T12:26:18.951Z,20.32
2019-01-20T12:29:01.703Z,18.77
2019-01-20T12:31:46.956Z,19.47
2019-01-20T12:34:31.992Z,17.30
2019-01-20T12:37:17.060Z,16.53
2019-01-20T12:40:01.709Z,15.93
2019-01-20T12:42:46.506Z,17.07
2019-01-20T12:45:29.673Z,17.93
2019-01-20T12:48:12.286Z,17.03
2019-01-20T12:50:55.909Z,18.97
2019-01-20T12:53:39.225Z,18.20
2019-01-20T12:56:23.341Z,18.40
2019-01-20T12:59:08.097Z,18.30
2019-01-20T13:01:51.707Z,18.23
2019-01-20T13:04:35.970Z,17.47
2019-01-20T13:07:18.769Z,18.10
2019-01-20T13:10:04.267Z,17.93
2019-01-20T13:12:49.353Z,17.63
2019-01-20T13:15:32.021Z,18.43
2019-01-20T13:18:15.445Z,17.97
2019-01-20T13:20:59.006Z,16.53
2019-01-20T13:23:43.196Z,21.17
2019-01-20T13:26:25.722Z,20.90
2019-01-20T13:29:09.100Z,18.67
2019-01-20T13:31:52.053Z,16.23
2019-01-20T13:34:35.552Z,17.37
2019-01-20T13:37:19.821Z,17.27
2019-01-20T13:40:02.493Z,19.47
2019-01-20T13:42:46.937Z,18.70
2019-01-20T13:45:29.499Z,18.17
2019-01-20T13:48:12.635Z,17.57
2019-01-20T13:50:55.458Z,16.10
2019-01-20T13:53:40.052Z,14.57
2019-01-20T13:56:22.978Z,16.63
2019-01-20T13:59:06.256Z,17.77
2019-01-20T14:01:48.887Z,19.73
2019-01-20T14:04:31.912Z,15.93
2019-01-20T14:07:15.279Z,18.67
2019-01-20T14:09:57.809Z,17.97
2019-01-20T14:12:40.646Z,16.17
2019-01-20T14:15:26.186Z,18.10
2019-01-20T14:18:09.040Z,17.53
2019-01-20T14:20:51.721Z,23.52
2019-01-20T14:23:34.397Z,20.77
2019-01-20T14:26:16.971Z,18.53
2019-01-20T14:29:02.284Z,19.07
2019-01-20T14:31:46.845Z,19.50
2019-01-20T14:34:29.455Z,15.97
2019-01-20T14:37:12.832Z,14.73
2019-01-20T14:39:55.956Z,14.67
2019-01-20T14:42:40.968Z,14.53
2019-01-20T14:45:23.951Z,13.00
2019-01-20T14:48:06.826Z,13.13
2019-01-20T14:50:49.465Z,13.67
2019-01-20T14:53:32.400Z,14.57
2019-01-20T14:56:13.941Z,16.33
2019-01-20T14:58:56.729Z,16.37
2019-01-20T15:01:39.679Z,14.17
2019-01-20T15:04:22.186Z,14.37
2019-01-20T15:07:06.234Z,14.33
2019-01-20T15:09:49.044Z,14.40
2019-01-20T15:12:31.718Z,17.70
2019-01-20T15:15:16.522Z,17.27
2019-01-20T15:18:00.140Z,14.73
2019-01-20T15:20:43.502Z,16.53
2019-01-20T15:23:26.499Z,14.77
2019-01-20T15:26:09.692Z,13.70
2019-01-20T15:28:53.959Z,14.73
2019-01-20T15:31:39.986Z,13.73
2019-01-20T15:34:23.987Z,13.70
2019-01-20T15:37:09.164Z,16.00
2019-01-20T15:39:52.760Z,13.67
2019-01-20T15:42:35.590Z,13.67
2019-01-20T15:45:19.037Z,14.67
2019-01-20T15:48:02.596Z,15.33
2019-01-20T15:50:46.227Z,13.10
2019-01-20T15:53:31.539Z,14.47
2019-01-20T15:56:14.665Z,14.87
2019-01-20T15:58:59.518Z,19.00
2019-01-20T16:01:44.777Z,18.07
2019-01-20T16:04:29.916Z,16.70
2019-01-20T16:07:13.362Z,12.87
2019-01-20T16:09:56.391Z,14.50
2019-01-20T16:12:39.608Z,15.87
2019-01-20T16:15:24.678Z,13.20
2019-01-20T16:18:07.293Z,17.47
2019-01-20T16:20:51.654Z,18.80
2019-01-20T16:23:36.930Z,17.23
2019-01-20T16:26:23.591Z,14.07
2019-01-20T16:29:06.766Z,12.83
2019-01-20T16:31:49.966Z,13.37
2019-01-20T16:34:32.804Z,13.50
2019-01-20T16:37:17.374Z,13.33
2019-01-20T16:40:02.467Z,13.57
2019-01-20T16:42:45.834Z,11.40
2019-01-20T16:45:32.993Z,13.37
2019-01-20T16:48:14.085Z,21.57
2019-01-20T16:50:57.941Z,18.27
2019-01-20T16:53:43.515Z,18.87
2019-01-20T16:56:26.641Z,18.63
2019-01-20T16:59:12.946Z,14.70
2019-01-20T17:01:56.287Z,13.00
2019-01-20T17:04:40.727Z,10.73
2019-01-20T17:07:23.760Z,9.57
2019-01-20T17:10:06.916Z,14.37
2019-01-20T17:12:50.101Z,13.83
2019-01-20T17:15:39.405Z,11.93
2019-01-20T17:18:17.561Z,12.53
2019-01-20T17:21:02.837Z,10.77
2019-01-20T17:23:47.476Z,12.30
2019-01-20T17:26:30.372Z,12.87
2019-01-20T17:29:13.366Z,11.73
2019-01-20T17:31:56.781Z,14.30
2019-01-20T17:34:39.875Z,13.13
2019-01-20T17:37:22.753Z,13.63
2019-01-20T17:40:06.043Z,14.90
2019-01-20T17:42:49.125Z,15.85
2019-01-20T17:45:32.413Z,17.27
2019-01-20T17:48:17.552Z,21.27
2019-01-20T17:51:02.307Z,17.30
2019-01-20T17:56:57.695Z,17.07
2019-01-20T17:59:44.431Z,14.83
2019-01-20T18:02:27.062Z,22.27
2019-01-20T18:07:55.027Z,16.77
2019-01-20T18:10:41.821Z,14.03
2019-01-20T18:13:24.834Z,14.47
2019-01-20T18:16:08.244Z,15.70
2019-01-20T18:18:53.782Z,13.57
2019-01-20T18:21:37.209Z,36.17
2019-01-20T18:24:20.438Z,55.73
2019-01-20T18:27:04.060Z,26.77
2019-01-20T18:29:46.833Z,19.33
2019-01-20T18:32:30.475Z,18.42
2019-01-20T18:35:13.827Z,18.47
2019-01-20T18:37:57.247Z,15.37
2019-01-20T18:40:43.326Z,13.33
2019-01-20T18:43:27.932Z,13.30
2019-01-20T18:46:10.622Z,14.80
2019-01-20T18:48:54.274Z,13.60
2019-01-20T18:51:39.452Z,14.17
2019-01-20T18:54:24.893Z,92.77
2019-01-20T18:57:07.872Z,38.30
2019-01-20T18:59:50.961Z,20.50
2019-01-20T19:02:35.970Z,15.63
2019-01-20T19:05:19.902Z,15.77
2019-01-20T19:08:02.729Z,17.67
2019-01-20T19:10:45.746Z,15.38
2019-01-20T19:13:28.470Z,15.60
2019-01-20T19:16:11.540Z,14.00
2019-01-20T19:18:54.448Z,12.67
2019-01-20T19:21:38.682Z,12.50
2019-01-20T19:24:41.696Z,13.13
2019-01-20T19:27:25.642Z,11.10
2019-01-20T19:30:10.917Z,12.87
2019-01-20T19:32:55.001Z,13.97
2019-01-20T19:35:38.368Z,16.82
2019-01-20T19:38:21.810Z,12.77
2019-01-20T19:43:49.816Z,16.30
2019-01-20T19:46:33.155Z,11.83
2019-01-20T19:49:16.729Z,12.97
2019-01-20T19:51:59.396Z,12.00
2019-01-20T19:54:43.877Z,13.23
2019-01-20T19:57:29.647Z,11.37
2019-01-20T20:00:12.999Z,13.88
2019-01-20T20:02:56.757Z,12.47
2019-01-20T20:05:40.264Z,10.50
2019-01-20T20:08:22.956Z,10.13
2019-01-20T20:11:05.572Z,12.90
2019-01-20T20:13:50.895Z,13.17
2019-01-20T20:16:36.021Z,10.73
2019-01-20T20:19:20.639Z,10.73
2019-01-20T20:22:03.992Z,9.97
2019-01-20T20:24:49.937Z,9.37
2019-01-20T20:27:34.785Z,12.28
2019-01-20T20:30:21.514Z,11.07
2019-01-20T20:33:04.483Z,9.43
2019-01-20T20:35:47.537Z,10.17
2019-01-20T20:38:19.234Z,11.77
2019-01-20T20:41:10.139Z,11.30
2019-01-20T20:43:53.019Z,10.67
2019-01-20T20:46:36.208Z,8.80
2019-01-20T20:49:19.203Z,9.93
2019-01-20T20:52:02.057Z,10.07
2019-01-20T20:54:45.120Z,9.10
2019-01-20T20:57:29.394Z,8.70
2019-01-20T21:00:12.473Z,11.77
2019-01-20T21:02:56.219Z,9.10
2019-01-20T21:05:42.001Z,13.85
2019-01-20T21:08:26.916Z,14.20
2019-01-20T21:11:11.884Z,11.30
2019-01-20T21:13:55.795Z,8.13
2019-01-20T21:16:39.231Z,7.73
2019-01-20T21:19:24.473Z,6.97
2019-01-20T21:22:09.392Z,9.63
2019-01-20T21:24:52.567Z,10.67
2019-01-20T21:27:36.875Z,9.23
2019-01-20T21:30:22.092Z,8.00
2019-01-20T21:33:05.501Z,7.73
2019-01-20T21:35:49.089Z,7.33
2019-01-20T21:38:33.571Z,9.23
2019-01-20T21:41:20.751Z,9.23
2019-01-20T21:43:52.440Z,9.43
2019-01-20T21:46:45.363Z,9.70
2019-01-20T21:49:38.240Z,10.73
2019-01-20T21:52:23.613Z,10.00
2019-01-20T21:55:06.656Z,10.10
2019-01-20T21:57:50.248Z,10.27
2019-01-20T22:00:33.519Z,14.25
2019-01-20T22:03:16.516Z,14.40
2019-01-20T22:05:59.996Z,12.90
2019-01-20T22:08:43.394Z,13.43
2019-01-20T22:11:28.960Z,16.30
2019-01-20T22:14:12.435Z,14.83
2019-01-20T22:16:55.301Z,17.80
2019-01-20T22:19:38.727Z,17.60
2019-01-20T22:22:23.812Z,15.73
2019-01-20T22:25:08.985Z,13.27
2019-01-20T22:27:53.738Z,15.60
2019-01-20T22:30:36.354Z,15.40
2019-01-20T22:33:19.050Z,15.83
2019-01-20T22:36:02.426Z,14.53
2019-01-20T22:38:46.101Z,16.57
2019-01-20T22:41:30.201Z,15.23
2019-01-20T22:44:13.215Z,14.97
2019-01-20T22:47:00.182Z,13.83
2019-01-20T22:49:43.755Z,11.80
2019-01-20T22:52:26.564Z,10.63
2019-01-20T22:55:11.572Z,10.87
2019-01-20T22:57:55.122Z,12.00
2019-01-20T23:00:57.419Z,14.13
2019-01-20T23:04:01.956Z,13.63
2019-01-20T23:06:44.741Z,11.43
2019-01-20T23:09:28.775Z,12.40
2019-01-20T23:12:12.285Z,18.65
2019-01-20T23:14:55.113Z,15.93
2019-01-20T23:17:39.770Z,12.57
2019-01-20T23:20:22.783Z,13.30
2019-01-20T23:23:06.470Z,11.47
2019-01-20T23:25:49.077Z,10.10
2019-01-20T23:28:33.873Z,10.33
2019-01-20T23:31:17.397Z,10.87
2019-01-20T23:34:01.993Z,10.00
2019-01-20T23:36:44.765Z,9.00
2019-01-20T23:39:30.023Z,8.80
2019-01-20T23:42:12.649Z,8.60
2019-01-20T23:44:57.502Z,10.57
2019-01-20T23:47:42.530Z,9.37
2019-01-20T23:50:27.657Z,15.10
2019-01-20T23:53:13.198Z,13.90
2019-01-20T23:55:55.795Z,11.70
2019-01-20T23:58:39.787Z,10.53
